Portada
METAR-TAF:

METAR-TAF

Aeroports :

Al-Arix, Egipte

latitud: 31-05N, longitud: 033-49E, altitud: 31 m

METAR: manca

Hora: 18:44 (16:44 UTC)

Pronòstic

L'informe es va fer fa 5 hores i 44 minuts, a les 11:00 UTC
Pronòstic vàlid del 31 a les 12 UTC al 01 a les 18 UTC
Vent 15 kt del Oest/Sud-Oest amb ràfegues de 25 kt
Visibilitat: 6000 m
Núvols disperses a una alçada de 2500 ft
Temporalment
l' 31 a les 12 UTC al 31 a les 20 UTC
Visibilitat: 4000 m
Cel ennuvolat a una alçada de 2000 ft
xàfecs de pluja

TAF: HEAR 311100Z 3112/0118 24015G25KT 6000 SCT025 TEMPO 3112/3120 4000 SHRA BKN020

Observacions i pronòstics meteorològics de més de 4000 aeroports (METAR i TAF).

Les estacions disponibles són els punts grocs i vermells al mapa.

Posi el ratolí al punt desitjat per veure el nom de l'estació.

Feu clic per veure les observacions i els pronòstics meteorològics.

Per canviar el mapa: feu clic els botons verds amb una creu de color negre per apropar; al botó verd amb un guió per allunyar la imatge; o en les fletxes verdes per a mapes adjacents.


METAR-TAF: